createdAt,value
2018-11-06T10:54:28.457Z,19.20
2018-11-06T10:56:56.868Z,18.80
2018-11-06T10:59:25.441Z,18.50
2018-11-06T11:01:59.264Z,18.30
2018-11-06T11:04:28.445Z,18.20
2018-11-06T11:06:56.964Z,18.00
2018-11-06T11:09:32.269Z,18.00
2018-11-06T11:12:02.101Z,17.90
2018-11-06T11:14:30.686Z,17.80
2018-11-06T11:16:59.121Z,17.70
2018-11-06T11:19:28.156Z,17.70
2018-11-06T11:21:56.602Z,17.90
2018-11-06T11:24:25.104Z,18.40
2018-11-06T11:26:53.501Z,18.70
2018-11-06T11:29:21.983Z,18.90
2018-11-06T11:31:50.377Z,18.90
2018-11-06T11:34:18.789Z,19.20
2018-11-06T11:36:47.289Z,19.80
2018-11-06T11:39:15.852Z,20.30
2018-11-06T11:41:44.268Z,20.50
2018-11-06T11:44:12.661Z,20.50
2018-11-06T11:46:41.532Z,20.50
2018-11-06T11:49:10.053Z,20.40
2018-11-06T11:51:38.731Z,20.30
2018-11-06T11:54:07.305Z,19.70
2018-11-06T11:56:35.821Z,19.50
2018-11-06T11:59:04.238Z,19.50
2018-11-06T12:01:32.853Z,19.70
2018-11-06T12:04:01.456Z,19.60
2018-11-06T12:06:29.889Z,19.60
2018-11-06T12:08:58.403Z,19.80
2018-11-06T12:11:26.785Z,19.70
2018-11-06T12:13:55.184Z,19.90
2018-11-06T12:16:23.740Z,19.80
2018-11-06T12:18:52.152Z,19.70
2018-11-06T12:21:20.560Z,19.80
2018-11-06T12:23:49.086Z,19.80
2018-11-06T12:26:17.496Z,19.90
2018-11-06T12:28:45.895Z,19.80
2018-11-06T12:31:14.285Z,19.70
2018-11-06T12:33:42.696Z,19.70
2018-11-06T12:36:11.184Z,19.80
2018-11-06T12:38:39.617Z,19.60
2018-11-06T12:41:08.168Z,19.40
2018-11-06T12:43:37.241Z,19.10
2018-11-06T12:46:06.143Z,19.00
2018-11-06T12:48:34.552Z,18.80
2018-11-06T12:51:03.096Z,18.60
2018-11-06T12:53:31.481Z,18.50
2018-11-06T12:55:59.947Z,18.40
2018-11-06T12:58:28.432Z,18.30
2018-11-06T13:00:56.813Z,18.20
2018-11-06T13:03:25.264Z,18.30
2018-11-06T13:05:53.656Z,18.30
2018-11-06T13:08:22.041Z,18.20
2018-11-06T13:10:50.442Z,18.20
2018-11-06T13:13:18.846Z,18.30
2018-11-06T13:15:47.314Z,18.30
2018-11-06T13:18:16.357Z,18.20
2018-11-06T13:20:45.396Z,18.30
2018-11-06T13:23:13.785Z,18.30
2018-11-06T13:25:42.355Z,18.30
2018-11-06T13:28:10.692Z,18.40
2018-11-06T13:30:39.194Z,18.50
2018-11-06T13:33:07.683Z,18.50
2018-11-06T13:35:36.216Z,18.50
2018-11-06T13:38:04.648Z,18.40
2018-11-06T13:40:33.085Z,18.20
2018-11-06T13:43:01.629Z,18.10
2018-11-06T13:45:30.119Z,18.00
2018-11-06T13:47:58.438Z,18.00
2018-11-06T13:50:26.841Z,18.00
2018-11-06T13:52:56.436Z,17.90
2018-11-06T13:55:24.867Z,17.70
2018-11-06T13:57:53.276Z,17.60
2018-11-06T14:00:22.145Z,17.60
2018-11-06T14:02:50.590Z,17.60
2018-11-06T14:05:19.310Z,17.50
2018-11-06T14:07:47.688Z,17.40
2018-11-06T14:10:16.403Z,17.30
2018-11-06T14:12:45.342Z,17.20
2018-11-06T14:15:13.872Z,17.10
2018-11-06T14:17:42.260Z,16.90
2018-11-06T14:20:12.593Z,16.80
2018-11-06T14:22:41.009Z,16.80
2018-11-06T14:25:09.591Z,16.70
2018-11-06T14:27:38.216Z,16.70
2018-11-06T14:30:09.996Z,16.60
2018-11-06T14:32:38.756Z,16.50
2018-11-06T14:35:08.644Z,16.50
2018-11-06T14:37:37.084Z,16.40
2018-11-06T14:40:06.842Z,16.40
2018-11-06T14:42:35.418Z,16.40
2018-11-06T14:45:04.098Z,16.40
2018-11-06T14:47:32.516Z,16.30
2018-11-06T14:50:01.128Z,16.30
2018-11-06T14:52:29.575Z,16.20
2018-11-06T14:54:57.976Z,16.10
2018-11-06T14:57:26.377Z,16.10
2018-11-06T14:59:54.958Z,16.00
2018-11-06T15:02:23.484Z,16.10
2018-11-06T15:04:52.777Z,16.00
2018-11-06T15:07:21.232Z,16.00
2018-11-06T15:09:49.641Z,15.90
2018-11-06T15:12:18.100Z,15.80
2018-11-06T15:14:46.811Z,15.70
2018-11-06T15:17:15.325Z,15.70
2018-11-06T15:19:43.757Z,15.70
2018-11-06T15:22:12.269Z,15.60
2018-11-06T15:24:40.685Z,15.50
2018-11-06T15:27:09.416Z,15.50
2018-11-06T15:29:37.848Z,15.40
2018-11-06T15:32:06.407Z,15.40
2018-11-06T15:34:35.236Z,15.40
2018-11-06T15:37:03.725Z,15.30
2018-11-06T15:39:32.138Z,15.30
2018-11-06T15:42:00.739Z,15.20
2018-11-06T15:44:29.005Z,15.10
2018-11-06T15:46:57.409Z,15.00
2018-11-06T15:49:25.802Z,15.00
2018-11-06T15:51:54.347Z,15.00
2018-11-06T15:54:22.881Z,14.90
2018-11-06T15:56:51.378Z,14.90
2018-11-06T15:59:19.907Z,14.80
2018-11-06T16:01:48.508Z,14.80
2018-11-06T16:04:17.015Z,14.80
2018-11-06T16:06:45.457Z,14.70
2018-11-06T16:09:13.852Z,14.80
2018-11-06T16:11:42.405Z,14.70
2018-11-06T16:14:10.981Z,14.70
2018-11-06T16:16:39.496Z,14.60
2018-11-06T16:19:08.015Z,14.60
2018-11-06T16:21:36.550Z,14.60
2018-11-06T16:24:05.216Z,14.60
2018-11-06T16:26:33.681Z,14.50
2018-11-06T16:29:02.117Z,14.50
2018-11-06T16:31:30.645Z,14.50
2018-11-06T16:33:59.633Z,14.40
2018-11-06T16:36:28.204Z,14.40
2018-11-06T16:38:56.689Z,14.40
2018-11-06T16:41:25.267Z,14.40
2018-11-06T16:43:53.696Z,14.40
2018-11-06T16:46:22.248Z,14.30
2018-11-06T16:48:50.872Z,14.20
2018-11-06T16:51:19.429Z,14.20
2018-11-06T16:53:47.926Z,14.20
2018-11-06T16:56:16.492Z,14.10
2018-11-06T16:58:45.133Z,14.10
2018-11-06T17:01:13.915Z,14.10
2018-11-06T17:03:42.253Z,14.10
2018-11-06T17:06:14.937Z,14.10
2018-11-06T17:08:43.937Z,14.00
2018-11-06T17:11:12.481Z,14.00
2018-11-06T17:13:41.008Z,14.00
2018-11-06T17:16:10.099Z,14.00
2018-11-06T17:18:38.497Z,14.00
2018-11-06T17:21:07.042Z,13.90
2018-11-06T17:23:35.604Z,13.90
2018-11-06T17:26:04.038Z,13.90
2018-11-06T17:28:33.217Z,13.90
2018-11-06T17:31:01.677Z,13.80
2018-11-06T17:33:30.100Z,13.80
2018-11-06T17:35:58.685Z,13.70
2018-11-06T17:38:27.279Z,13.70
2018-11-06T17:40:55.907Z,13.70
2018-11-06T17:43:24.648Z,13.60
2018-11-06T17:45:53.490Z,13.50
2018-11-06T17:48:22.029Z,13.50
2018-11-06T17:50:50.554Z,13.50
2018-11-06T17:53:19.032Z,13.40
2018-11-06T17:55:47.561Z,13.40
2018-11-06T17:58:16.147Z,13.30
2018-11-06T18:00:44.719Z,13.30
2018-11-06T18:03:13.441Z,13.30
2018-11-06T18:05:41.890Z,13.30
2018-11-06T18:08:10.457Z,13.20
2018-11-06T18:10:38.964Z,13.10
2018-11-06T18:13:07.673Z,13.10
2018-11-06T18:15:36.059Z,13.10
2018-11-06T18:18:04.782Z,13.10
2018-11-06T18:20:33.903Z,13.10
2018-11-06T18:23:02.355Z,13.10
2018-11-06T18:25:30.907Z,13.00
2018-11-06T18:27:59.325Z,13.00
2018-11-06T18:30:28.850Z,13.10
2018-11-06T18:32:57.348Z,13.20
2018-11-06T18:35:25.808Z,13.20
2018-11-06T18:37:54.452Z,13.20
2018-11-06T18:40:23.004Z,13.10
2018-11-06T18:42:51.982Z,13.20
2018-11-06T18:45:20.587Z,13.20
2018-11-06T18:47:49.209Z,13.10
2018-11-06T18:50:19.370Z,13.10
2018-11-06T18:52:48.995Z,13.10
2018-11-06T18:55:18.307Z,13.20
2018-11-06T18:57:46.897Z,13.00
2018-11-06T19:00:16.695Z,12.90
2018-11-06T19:02:46.372Z,12.90
2018-11-06T19:05:15.392Z,12.80
2018-11-06T19:07:43.847Z,12.80
2018-11-06T19:10:13.489Z,12.80
2018-11-06T19:12:42.156Z,12.80
2018-11-06T19:15:14.624Z,12.70
2018-11-06T19:17:43.848Z,12.80
2018-11-06T19:20:12.965Z,12.80
2018-11-06T19:22:41.396Z,12.70
2018-11-06T19:25:10.910Z,12.80
2018-11-06T19:27:39.823Z,12.80
2018-11-06T19:30:11.082Z,12.90
2018-11-06T19:32:39.941Z,12.90
2018-11-06T19:35:08.765Z,12.90
2018-11-06T19:37:37.664Z,12.90
2018-11-06T19:40:08.189Z,12.90
2018-11-06T19:42:37.060Z,12.90
2018-11-06T19:45:06.150Z,12.80
2018-11-06T19:47:34.710Z,12.80
2018-11-06T19:50:03.424Z,12.80
2018-11-06T19:52:32.077Z,12.80
2018-11-06T19:55:00.670Z,12.80
2018-11-06T19:57:29.288Z,12.80
2018-11-06T19:59:57.841Z,12.80
2018-11-06T20:02:26.307Z,12.70
2018-11-06T20:04:54.790Z,12.70
2018-11-06T20:07:23.268Z,12.70
2018-11-06T20:09:51.681Z,12.70
2018-11-06T20:12:20.953Z,12.60
2018-11-06T20:14:49.376Z,12.60
2018-11-06T20:17:17.928Z,12.60
2018-11-06T20:19:46.347Z,12.60
2018-11-06T20:22:14.969Z,12.60
2018-11-06T20:24:43.432Z,12.50
2018-11-06T20:27:11.966Z,12.50
2018-11-06T20:29:40.604Z,12.40
2018-11-06T20:32:09.250Z,12.40
2018-11-06T20:34:37.737Z,12.40
2018-11-06T20:37:06.614Z,12.30
2018-11-06T21:06:45.715Z,12.00
2018-11-06T21:09:14.199Z,11.90
2018-11-06T21:11:42.703Z,11.80
2018-11-06T21:14:11.216Z,11.80
2018-11-06T21:16:39.666Z,11.80
2018-11-06T21:19:08.061Z,11.70
2018-11-06T21:21:37.565Z,11.70
2018-11-06T21:24:06.246Z,11.60
2018-11-06T21:26:34.915Z,11.60
2018-11-06T21:29:03.829Z,11.50
2018-11-06T21:31:32.413Z,11.60
2018-11-06T21:34:00.995Z,11.40
2018-11-06T21:36:29.568Z,11.30
2018-11-06T21:38:58.077Z,11.30
2018-11-06T21:41:26.484Z,11.20
2018-11-06T21:43:54.927Z,11.20
2018-11-06T21:46:23.368Z,11.20
2018-11-06T21:48:51.766Z,11.20
2018-11-06T21:51:20.233Z,11.00
2018-11-06T21:53:49.243Z,11.00
2018-11-06T21:56:17.690Z,11.00
2018-11-06T21:58:46.311Z,11.00
2018-11-06T22:01:14.797Z,11.00
2018-11-06T22:03:43.329Z,11.00
2018-11-06T22:06:11.787Z,11.00
2018-11-06T22:08:40.209Z,11.00
2018-11-06T22:11:08.800Z,11.10
2018-11-06T22:13:43.960Z,11.10
2018-11-06T22:16:12.365Z,11.10
2018-11-06T22:18:41.516Z,11.20
2018-11-06T22:21:09.981Z,11.20
2018-11-06T22:23:38.913Z,11.20
2018-11-06T22:26:07.486Z,11.20
2018-11-06T22:28:35.953Z,11.10
2018-11-06T22:31:04.492Z,11.10
2018-11-06T22:33:33.054Z,11.10
2018-11-06T22:36:01.580Z,11.20
2018-11-06T22:38:30.625Z,11.20
2018-11-06T22:40:59.238Z,11.10
2018-11-06T22:43:28.260Z,11.10
2018-11-06T22:45:56.656Z,11.10
2018-11-06T22:48:25.114Z,11.10
2018-11-06T22:50:53.629Z,11.10
2018-11-06T22:53:22.101Z,11.10
2018-11-06T22:55:51.253Z,11.10
2018-11-06T22:58:19.764Z,11.10
2018-11-06T23:00:53.529Z,11.10
2018-11-06T23:03:22.289Z,11.20
2018-11-06T23:05:50.772Z,11.10
2018-11-06T23:08:24.712Z,11.00
2018-11-06T23:10:53.772Z,11.00
2018-11-06T23:13:22.285Z,10.90
2018-11-06T23:15:50.838Z,10.90
2018-11-06T23:18:19.541Z,10.90
2018-11-06T23:20:47.924Z,10.90
2018-11-06T23:23:16.342Z,10.80
2018-11-06T23:25:44.784Z,10.80
2018-11-06T23:28:13.222Z,10.60
2018-11-06T23:30:41.769Z,10.60
2018-11-06T23:33:10.569Z,10.50
2018-11-06T23:35:39.018Z,10.50
2018-11-06T23:38:07.568Z,10.50
2018-11-06T23:40:35.961Z,10.50
2018-11-06T23:43:04.850Z,10.50
2018-11-06T23:45:33.233Z,10.50
2018-11-06T23:48:01.637Z,10.50
2018-11-06T23:50:30.210Z,10.50
2018-11-06T23:52:58.627Z,10.40
2018-11-06T23:55:27.036Z,10.30
2018-11-06T23:57:55.436Z,10.30
